Time;durP1;ratioP1;P1;durP2;ratioP2;P2;SDS_P1;SDS_P2;PMS_P1;PMS_P2;Temp;Humidity;BMP_temperature;BMP_pressure;BME280_temperature;BME280_humidity;BME280_pressure;Samples;Min_cycle;Max_cycle;Signal;HPM_P1;HPM_P2
2021/08/08 00:00:30;;;;;;;27.60;24.97;;;;;;;16.92;100.00;98260.25;2089411;28;20758;-81
2021/08/08 00:01:33;;;;;;;27.13;24.03;;;;;;;16.93;100.00;98269.13;2090036;28;20840;-81
2021/08/08 00:02:37;;;;;;;27.17;24.23;;;;;;;16.92;100.00;98275.66;2089465;28;20712;-81
2021/08/08 00:03:40;;;;;;;27.20;24.67;;;;;;;16.93;100.00;98259.13;2089126;28;20461;-80
2021/08/08 00:04:41;;;;;;;26.13;23.77;;;;;;;16.95;100.00;98256.09;2089519;28;20510;-81
2021/08/08 00:05:43;;;;;;;26.23;23.90;;;;;;;16.94;100.00;98258.00;2089431;28;20453;-81
2021/08/08 00:06:43;;;;;;;25.77;23.73;;;;;;;16.93;100.00;98264.50;2090110;28;20218;-81
2021/08/08 00:07:45;;;;;;;25.60;23.27;;;;;;;16.93;100.00;98266.44;2089997;28;20450;-81
2021/08/08 00:08:45;;;;;;;24.93;22.77;;;;;;;16.90;100.00;98267.94;2089357;28;20226;-81
2021/08/08 00:09:47;;;;;;;25.50;23.20;;;;;;;16.90;100.00;98262.53;2081157;28;20438;-81
2021/08/08 00:10:48;;;;;;;25.77;23.40;;;;;;;16.89;100.00;98260.19;2089486;28;20226;-81
2021/08/08 00:11:50;;;;;;;26.63;23.70;;;;;;;16.87;100.00;98263.25;2090183;28;20544;-81
2021/08/08 00:12:52;;;;;;;26.73;24.07;;;;;;;16.82;100.00;98260.84;2089112;28;20309;-82
2021/08/08 00:13:53;;;;;;;26.10;23.80;;;;;;;16.81;100.00;98264.69;2074315;28;20459;-80
2021/08/08 00:14:55;;;;;;;25.40;23.27;;;;;;;16.79;100.00;98261.56;2083099;28;20458;-81
2021/08/08 00:15:57;;;;;;;26.57;24.20;;;;;;;16.78;100.00;98253.84;2081368;28;20226;-81
2021/08/08 00:16:59;;;;;;;26.67;24.27;;;;;;;16.75;100.00;98255.31;2080944;28;20466;-81
2021/08/08 00:18:02;;;;;;;26.10;23.90;;;;;;;16.82;100.00;98260.06;2081003;28;20442;-81
2021/08/08 00:19:03;;;;;;;25.10;22.97;;;;;;;16.78;100.00;98260.00;2073268;28;20451;-81
2021/08/08 00:20:06;;;;;;;25.93;23.60;;;;;;;16.75;100.00;98255.31;2081070;28;20464;-82
2021/08/08 00:21:07;;;;;;;26.53;24.37;;;;;;;16.74;100.00;98255.69;2084911;28;20235;-80
2021/08/08 00:22:09;;;;;;;26.93;24.23;;;;;;;16.72;100.00;98255.25;2081126;28;20442;-81
2021/08/08 00:23:10;;;;;;;25.10;22.90;;;;;;;16.66;100.00;98249.34;2081735;28;20281;-81
2021/08/08 00:24:11;;;;;;;27.07;24.67;;;;;;;16.65;100.00;98253.19;2080982;28;20459;-81
2021/08/08 00:25:12;;;;;;;26.30;23.70;;;;;;;16.61;100.00;98245.03;2080954;28;20682;-82
2021/08/08 00:26:14;;;;;;;25.63;23.17;;;;;;;16.59;100.00;98249.19;2081211;28;20866;-81
2021/08/08 00:27:14;;;;;;;26.47;24.20;;;;;;;16.57;100.00;98251.47;2080940;28;20702;-81
2021/08/08 00:28:16;;;;;;;26.17;23.50;;;;;;;16.54;100.00;98244.13;2081159;28;20785;-82
2021/08/08 00:29:18;;;;;;;26.23;23.87;;;;;;;16.52;100.00;98249.88;2080946;28;20219;-81
2021/08/08 00:30:20;;;;;;;25.57;23.23;;;;;;;16.49;100.00;98249.78;2081022;28;20529;-81
2021/08/08 00:31:23;;;;;;;25.77;23.53;;;;;;;16.49;100.00;98255.16;2081825;28;20924;-81
2021/08/08 00:32:26;;;;;;;26.10;23.40;;;;;;;16.53;100.00;98256.81;2087478;28;20461;-81
2021/08/08 00:33:30;;;;;;;25.43;23.30;;;;;;;16.51;100.00;98255.59;2081386;28;20512;-82
2021/08/08 00:34:31;;;;;;;26.07;23.57;;;;;;;16.48;100.00;98250.91;2080976;28;20484;-82
2021/08/08 00:35:34;;;;;;;25.10;22.73;;;;;;;16.47;100.00;98263.59;2089136;28;20297;-82
2021/08/08 00:36:37;;;;;;;25.23;23.17;;;;;;;16.43;100.00;98254.69;2089033;28;20456;-82
2021/08/08 00:37:42;;;;;;;26.67;24.37;;;;;;;16.43;100.00;98260.06;2088442;28;20222;-81
2021/08/08 00:38:44;;;;;;;25.57;23.23;;;;;;;16.40;100.00;98261.53;2080880;28;20458;-82
2021/08/08 00:39:45;;;;;;;25.70;23.23;;;;;;;16.46;100.00;98269.34;2080682;28;21001;-82
2021/08/08 00:40:46;;;;;;;25.80;23.23;;;;;;;16.40;100.00;98258.06;2080300;28;20822;-81
2021/08/08 00:41:48;;;;;;;25.50;23.17;;;;;;;16.43;100.00;98253.91;2080612;28;20219;-82
2021/08/08 00:42:49;;;;;;;26.20;23.47;;;;;;;16.41;100.00;98256.94;2080963;28;20458;-82
2021/08/08 00:43:50;;;;;;;27.57;25.30;;;;;;;16.39;100.00;98249.22;2080466;28;20595;-81
2021/08/08 00:44:52;;;;;;;26.13;23.83;;;;;;;16.37;100.00;98251.47;2080591;28;20458;-82
2021/08/08 00:45:53;;;;;;;25.90;23.63;;;;;;;16.44;100.00;98247.38;2079913;28;20223;-82
2021/08/08 00:46:58;;;;;;;25.80;23.50;;;;;;;16.44;100.00;98255.47;2088790;28;20449;-82
2021/08/08 00:48:01;;;;;;;27.23;24.73;;;;;;;16.43;100.00;98253.91;2088877;28;20453;-82
2021/08/08 00:49:08;;;;;;;26.73;24.47;;;;;;;16.39;100.00;98248.44;2074686;28;20989;-82
2021/08/08 00:50:10;;;;;;;25.67;23.20;;;;;;;16.39;100.00;98253.81;2073890;28;20466;-81
2021/08/08 00:51:11;;;;;;;27.03;24.57;;;;;;;16.33;100.00;98239.88;2072035;28;20498;-81
2021/08/08 00:52:18;;;;;;;26.27;24.07;;;;;;;16.34;100.00;98249.50;2082724;28;20980;-82
2021/08/08 00:53:20;;;;;;;25.97;23.77;;;;;;;16.35;100.00;98256.44;2080688;28;20968;-82
2021/08/08 00:54:23;;;;;;;27.40;24.80;;;;;;;16.29;100.00;98246.31;2076526;28;20470;-82
2021/08/08 00:55:25;;;;;;;26.00;23.90;;;;;;;16.27;100.00;98243.97;2088327;28;20528;-81
2021/08/08 00:56:29;;;;;;;24.83;22.37;;;;;;;16.25;100.00;98243.56;2088446;28;20257;-82
2021/08/08 00:57:31;;;;;;;26.47;24.23;;;;;;;16.23;100.00;98245.00;2080811;28;20458;-82
2021/08/08 00:58:33;;;;;;;26.20;23.90;;;;;;;16.21;100.00;98236.53;2080621;28;20442;-82
2021/08/08 00:59:36;;;;;;;25.57;23.37;;;;;;;16.18;100.00;98238.00;2080578;28;20981;-82
2021/08/08 01:00:41;;;;;;;26.77;24.57;;;;;;;16.16;100.00;98234.91;2088418;28;20465;-81
2021/08/08 01:01:44;;;;;;;25.67;23.27;;;;;;;16.37;100.00;98239.94;2088258;28;20450;-81
2021/08/08 01:02:50;;;;;;;26.67;23.97;;;;;;;16.64;100.00;98235.47;2081079;28;20975;-82
2021/08/08 01:03:58;;;;;;;25.70;23.70;;;;;;;16.57;100.00;98221.84;2080745;28;20477;-81
2021/08/08 01:05:06;;;;;;;25.13;22.53;;;;;;;16.56;100.00;98217.59;2081039;28;20576;-81
2021/08/08 01:06:14;;;;;;;27.60;25.07;;;;;;;16.56;100.00;98226.47;2088333;28;20453;-81
2021/08/08 01:07:18;;;;;;;26.80;24.37;;;;;;;16.46;100.00;98224.34;2081011;28;21074;-82
2021/08/08 01:08:24;;;;;;;25.77;23.40;;;;;;;16.39;100.00;98216.91;2080663;28;20446;-82
2021/08/08 01:09:27;;;;;;;26.63;24.33;;;;;;;16.33;100.00;98223.72;2073577;28;20526;-82
2021/08/08 01:10:29;;;;;;;26.20;24.00;;;;;;;16.28;100.00;98232.06;2072070;28;20772;-82
2021/08/08 01:11:30;;;;;;;26.13;24.03;;;;;;;16.23;100.00;98229.66;2080499;28;20953;-82
2021/08/08 01:12:32;;;;;;;26.60;24.10;;;;;;;16.24;100.00;98236.59;2080090;28;20446;-82
2021/08/08 01:13:33;;;;;;;25.93;23.57;;;;;;;16.21;100.00;98241.91;2072007;28;20977;-82
2021/08/08 01:14:36;;;;;;;27.10;24.60;;;;;;;16.21;100.00;98231.91;2080193;28;20859;-82
2021/08/08 01:15:39;;;;;;;24.90;22.70;;;;;;;16.17;100.00;98217.63;2081334;28;20228;-81
2021/08/08 01:16:42;;;;;;;24.53;22.17;;;;;;;16.18;100.00;98221.09;2072017;28;20458;-82
2021/08/08 01:17:43;;;;;;;23.80;22.00;;;;;;;16.18;100.00;98226.47;2071983;28;20486;-82
2021/08/08 01:18:45;;;;;;;24.53;22.13;;;;;;;16.20;100.00;98224.97;2072045;28;20559;-82
2021/08/08 01:19:53;;;;;;;22.80;20.70;;;;;;;16.21;100.00;98237.31;2080113;28;20466;-82
2021/08/08 01:20:54;;;;;;;23.40;21.47;;;;;;;16.24;100.00;98219.66;2074375;28;20815;-81
2021/08/08 01:21:58;;;;;;;24.07;21.67;;;;;;;16.27;100.00;98214.34;2072589;28;20934;-81
2021/08/08 01:23:03;;;;;;;23.50;21.37;;;;;;;16.40;100.00;98212.28;2071777;28;20517;-82
2021/08/08 01:24:07;;;;;;;24.60;22.40;;;;;;;16.44;100.00;98215.06;2072624;28;20439;-82
2021/08/08 01:25:11;;;;;;;24.60;22.33;;;;;;;16.48;100.00;98216.69;2078387;28;20454;-82
2021/08/08 01:26:11;;;;;;;24.97;22.53;;;;;;;16.49;100.00;98209.38;2080255;28;20529;-82
2021/08/08 01:27:14;;;;;;;25.07;22.90;;;;;;;16.50;100.00;98210.94;2080395;28;20443;-82
2021/08/08 01:28:17;;;;;;;24.00;21.83;;;;;;;16.52;100.00;98219.47;2080406;28;20458;-82
2021/08/08 01:29:19;;;;;;;24.53;22.23;;;;;;;16.53;100.00;98223.72;2080285;28;20442;-82
2021/08/08 01:30:21;;;;;;;23.10;21.00;;;;;;;16.50;100.00;98198.25;2080389;28;20450;-82
2021/08/08 01:31:22;;;;;;;24.13;21.83;;;;;;;16.72;100.00;98201.38;2079789;28;20956;-81
2021/08/08 01:32:25;;;;;;;23.50;21.10;;;;;;;16.65;100.00;98204.69;2080273;28;20826;-82
2021/08/08 01:33:27;;;;;;;23.47;21.77;;;;;;;16.61;100.00;98212.72;2080381;28;20458;-82
2021/08/08 01:34:48;;;;;;;24.13;21.77;;;;;;;16.58;100.00;98193.78;2082912;28;20462;-82
2021/08/08 01:35:53;;;;;;;23.70;21.50;;;;;;;16.61;100.00;98217.31;2080300;28;20497;-81
2021/08/08 01:36:59;;;;;;;24.63;22.20;;;;;;;16.60;100.00;98200.38;2079863;28;20457;-82
2021/08/08 01:38:00;;;;;;;24.03;22.00;;;;;;;16.55;100.00;98203.38;2042052;28;1103800;-82
2021/08/08 01:39:05;;;;;;;23.73;21.93;;;;;;;16.57;100.00;98200.31;2080572;28;20247;-82
2021/08/08 01:40:13;;;;;;;24.33;22.27;;;;;;;16.54;100.00;98201.03;2086662;28;20846;-81
2021/08/08 01:41:17;;;;;;;24.83;22.73;;;;;;;16.60;100.00;98205.00;2080893;28;20810;-81
2021/08/08 01:42:23;;;;;;;25.67;23.50;;;;;;;16.65;100.00;98218.16;2080947;28;20923;-81
2021/08/08 01:43:30;;;;;;;26.33;23.97;;;;;;;16.64;100.00;98216.59;2081125;28;21009;-81
2021/08/08 01:44:36;;;;;;;23.70;21.50;;;;;;;16.65;100.00;98208.16;2081191;28;20467;-82
2021/08/08 01:45:41;;;;;;;24.70;22.27;;;;;;;16.71;100.00;98207.91;2080487;28;20450;-81
2021/08/08 01:46:44;;;;;;;24.23;22.13;;;;;;;16.72;100.00;98223.72;2088559;28;20523;-81
2021/08/08 01:48:09;;;;;;;23.37;21.37;;;;;;;16.69;100.00;98202.88;2088453;28;20471;-82
2021/08/08 01:49:10;;;;;;;25.07;22.77;;;;;;;16.68;100.00;98214.78;2088997;28;20458;-82
2021/08/08 01:50:13;;;;;;;24.67;22.67;;;;;;;16.67;100.00;98208.56;2088583;28;20461;-82
2021/08/08 01:51:17;;;;;;;23.40;21.40;;;;;;;16.69;100.00;98227.13;2080995;28;20489;-82
2021/08/08 01:52:19;;;;;;;25.30;22.80;;;;;;;16.70;100.00;98211.75;2088556;28;20998;-82
2021/08/08 01:53:25;;;;;;;24.80;22.60;;;;;;;16.71;100.00;98211.38;2080701;28;20496;-82
2021/08/08 01:54:27;;;;;;;24.63;22.07;;;;;;;16.75;100.00;98216.81;2088507;28;20495;-82
2021/08/08 01:55:34;;;;;;;24.30;22.23;;;;;;;16.77;100.00;98209.97;2088512;28;20845;-82
2021/08/08 01:56:41;;;;;;;23.90;21.90;;;;;;;16.77;100.00;98199.19;2074497;28;20463;-81
2021/08/08 01:57:42;;;;;;;23.20;21.30;;;;;;;16.80;100.00;98208.47;2073389;28;20962;-81
2021/08/08 01:58:51;;;;;;;24.53;22.43;;;;;;;16.81;100.00;98204.63;2073018;28;20780;-82
2021/08/08 01:59:55;;;;;;;23.07;20.83;;;;;;;16.83;100.00;98213.13;2072244;28;20459;-82
2021/08/08 02:00:58;;;;;;;22.20;20.50;;;;;;;16.87;100.00;98209.38;2072095;28;23392;-82
2021/08/08 02:02:08;;;;;;;23.10;21.30;;;;;;;16.89;100.00;98201.69;2072468;28;20354;-82
2021/08/08 02:03:10;;;;;;;23.67;21.77;;;;;;;16.93;100.00;98196.38;2080721;28;20964;-82
2021/08/08 02:04:32;;;;;;;23.30;21.30;;;;;;;16.99;100.00;98194.16;2082227;28;20454;-82
2021/08/08 02:05:41;;;;;;;25.47;23.47;;;;;;;16.99;100.00;98196.84;2086405;28;20469;-81
2021/08/08 02:06:45;;;;;;;23.57;21.60;;;;;;;17.02;100.00;98188.03;2080911;28;20512;-82
2021/08/08 02:07:49;;;;;;;24.73;22.40;;;;;;;17.03;100.00;98187.72;2087889;28;20955;-82
2021/08/08 02:08:50;;;;;;;23.63;21.43;;;;;;;17.03;100.00;98195.00;2088613;28;20454;-82
2021/08/08 02:09:53;;;;;;;24.97;22.73;;;;;;;17.01;100.00;98179.19;2087904;28;20841;-82
2021/08/08 02:10:58;;;;;;;24.13;21.63;;;;;;;17.11;100.00;98185.88;2080342;28;20442;-82
2021/08/08 02:12:25;;;;;;;22.53;20.57;;;;;;;17.21;100.00;98190.69;2086183;28;20454;-81
2021/08/08 02:13:26;;;;;;;22.80;20.90;;;;;;;17.51;100.00;98178.06;2088221;28;20499;-82
2021/08/08 02:14:30;;;;;;;22.50;20.33;;;;;;;17.48;100.00;98181.47;2088610;28;20507;-81
2021/08/08 02:15:34;;;;;;;22.80;21.17;;;;;;;17.67;100.00;98179.81;2080657;28;20458;-81
2021/08/08 02:16:40;;;;;;;23.47;21.80;;;;;;;17.65;100.00;98172.09;2087835;28;20795;-81
2021/08/08 02:17:43;;;;;;;23.13;21.23;;;;;;;17.61;100.00;98165.06;2080585;28;20450;-81
2021/08/08 02:18:47;;;;;;;22.67;20.77;;;;;;;17.58;100.00;98176.59;2080234;28;20534;-82
2021/08/08 02:19:55;;;;;;;24.17;22.30;;;;;;;17.51;100.00;98175.34;2080677;28;20533;-82
2021/08/08 02:20:58;;;;;;;22.80;20.90;;;;;;;17.44;100.00;98167.16;2080330;28;21017;-81
2021/08/08 02:21:59;;;;;;;21.93;20.10;;;;;;;17.42;100.00;98166.75;2088489;28;20525;-82
2021/08/08 02:23:07;;;;;;;21.80;20.30;;;;;;;17.47;100.00;98176.47;2088495;28;20461;-82
2021/08/08 02:24:10;;;;;;;21.40;19.60;;;;;;;17.70;100.00;98173.72;2087936;28;20962;-81
2021/08/08 02:25:19;;;;;;;19.80;18.40;;;;;;;17.94;100.00;98162.47;2081479;28;20843;-81
2021/08/08 02:26:22;;;;;;;21.00;19.40;;;;;;;18.24;100.00;98169.75;2079978;28;20516;-81
2021/08/08 02:27:28;;;;;;;19.83;18.40;;;;;;;18.44;100.00;98163.06;2073907;28;21024;-81
2021/08/08 02:28:40;;;;;;;20.90;19.30;;;;;;;18.56;100.00;98167.41;2079644;28;20956;-81
2021/08/08 02:29:42;;;;;;;19.80;18.43;;;;;;;18.55;100.00;98163.94;2080101;28;20454;-81
2021/08/08 02:30:43;;;;;;;20.33;19.03;;;;;;;18.76;100.00;98162.63;2080231;28;20447;-81
2021/08/08 02:31:46;;;;;;;20.63;19.23;;;;;;;19.03;100.00;98153.25;2080091;28;20443;-81
2021/08/08 02:33:00;;;;;;;21.23;19.60;;;;;;;19.33;100.00;98163.88;2081426;28;20950;-81
2021/08/08 02:34:00;;;;;;;22.07;20.47;;;;;;;19.42;100.00;98160.84;2079952;28;20490;-81
2021/08/08 02:35:03;;;;;;;21.33;20.00;;;;;;;19.51;100.00;98172.13;2079723;28;20453;-82
2021/08/08 02:36:04;;;;;;;20.23;18.83;;;;;;;19.49;100.00;98172.50;2088672;28;20288;-82
2021/08/08 02:37:09;;;;;;;21.33;19.73;;;;;;;19.42;100.00;98174.38;2087690;28;20529;-81
2021/08/08 02:38:12;;;;;;;20.73;19.13;;;;;;;19.33;100.00;98180.13;2080254;28;20470;-82
2021/08/08 02:39:13;;;;;;;21.37;19.67;;;;;;;19.24;100.00;98181.59;2080044;28;20552;-82
2021/08/08 02:40:14;;;;;;;19.70;18.40;;;;;;;19.15;100.00;98179.19;2080249;28;20226;-82
2021/08/08 02:41:17;;;;;;;21.60;20.03;;;;;;;19.09;100.00;98184.16;2080314;28;20458;-82
2021/08/08 02:42:20;;;;;;;20.20;18.77;;;;;;;19.02;100.00;98186.81;2088104;28;20453;-81
2021/08/08 02:43:23;;;;;;;22.17;20.77;;;;;;;18.97;100.00;98187.16;2088009;28;20452;-81
2021/08/08 02:44:24;;;;;;;20.40;19.00;;;;;;;18.94;100.00;98185.22;2079789;28;20466;-81
2021/08/08 02:45:26;;;;;;;22.23;20.70;;;;;;;18.89;100.00;98185.53;2079809;28;20543;-82
2021/08/08 02:46:30;;;;;;;22.33;20.80;;;;;;;18.88;100.00;98194.81;2088235;28;20712;-82
2021/08/08 02:47:32;;;;;;;21.20;19.80;;;;;;;18.86;100.00;98194.41;2088062;28;20434;-82
2021/08/08 02:48:35;;;;;;;21.70;20.10;;;;;;;18.83;100.00;98195.91;2080373;28;20461;-82
2021/08/08 02:49:39;;;;;;;21.07;19.77;;;;;;;18.78;100.00;98192.78;2087806;28;20511;-81
2021/08/08 02:50:39;;;;;;;20.63;19.33;;;;;;;18.76;100.00;98201.22;2087977;28;20450;-82
2021/08/08 02:51:42;;;;;;;19.83;18.47;;;;;;;18.73;100.00;98202.00;2080083;28;20473;-81
2021/08/08 02:52:43;;;;;;;21.60;20.20;;;;;;;18.73;100.00;98215.50;2079703;28;20576;-81
2021/08/08 02:53:46;;;;;;;20.10;18.80;;;;;;;18.70;100.00;98210.06;2088476;28;20838;-81
2021/08/08 02:54:47;;;;;;;19.80;18.37;;;;;;;18.64;100.00;98213.06;2088821;28;20996;-81
2021/08/08 02:55:48;;;;;;;19.87;18.57;;;;;;;18.63;100.00;98214.22;2088077;28;20532;-82
2021/08/08 02:56:49;;;;;;;21.73;20.33;;;;;;;18.60;100.00;98216.88;2088351;28;20442;-81
2021/08/08 02:57:53;;;;;;;22.13;20.53;;;;;;;18.60;100.00;98219.59;2087672;28;20226;-80
2021/08/08 02:58:55;;;;;;;22.17;20.17;;;;;;;18.63;100.00;98224.25;2088161;28;20856;-81
2021/08/08 02:59:55;;;;;;;21.47;19.83;;;;;;;18.61;100.00;98216.50;2088378;28;20461;-82
2021/08/08 03:00:57;;;;;;;22.30;20.53;;;;;;;18.64;100.00;98229.28;2079735;28;23884;-81
2021/08/08 03:01:59;;;;;;;20.17;18.67;;;;;;;18.68;100.00;98225.84;2088172;28;20685;-82
2021/08/08 03:03:01;;;;;;;23.20;21.57;;;;;;;18.73;100.00;98226.31;2080106;28;20778;-81
2021/08/08 03:04:03;;;;;;;21.87;20.07;;;;;;;18.79;100.00;98232.94;2080117;28;20501;-81
2021/08/08 03:05:06;;;;;;;22.47;20.90;;;;;;;18.83;100.00;98233.75;2088467;28;20444;-81
2021/08/08 03:06:10;;;;;;;24.13;21.90;;;;;;;18.87;100.00;98228.38;2087699;28;20457;-80
2021/08/08 03:07:12;;;;;;;21.93;20.10;;;;;;;18.92;100.00;98228.03;2080714;28;20468;-81
2021/08/08 03:08:13;;;;;;;22.80;21.00;;;;;;;18.89;100.00;98231.50;2088014;28;20452;-81
2021/08/08 03:09:15;;;;;;;21.63;20.03;;;;;;;18.84;100.00;98229.88;2079609;28;20452;-81
2021/08/08 03:10:15;;;;;;;21.83;19.60;;;;;;;18.82;100.00;98234.13;2080170;28;20721;-81
2021/08/08 03:11:17;;;;;;;21.70;20.10;;;;;;;18.76;100.00;98232.88;2079708;28;20856;-81
2021/08/08 03:12:18;;;;;;;21.70;20.13;;;;;;;18.74;100.00;98232.50;2088168;28;20227;-81
2021/08/08 03:13:21;;;;;;;21.43;19.83;;;;;;;18.72;100.00;98237.50;2088247;28;20446;-82
2021/08/08 03:14:21;;;;;;;21.50;19.93;;;;;;;18.70;100.00;98234.38;2081523;28;20230;-79
2021/08/08 03:15:25;;;;;;;22.67;21.07;;;;;;;18.67;100.00;98243.22;2080054;28;20508;-81
2021/08/08 03:16:27;;;;;;;20.97;19.27;;;;;;;18.63;100.00;98243.94;2079702;28;20461;-81
2021/08/08 03:17:28;;;;;;;23.30;21.40;;;;;;;18.60;100.00;98244.69;2079741;28;20828;-81
2021/08/08 03:18:29;;;;;;;21.60;20.10;;;;;;;18.59;100.00;98250.44;2079818;28;20810;-81
2021/08/08 03:19:30;;;;;;;22.37;20.37;;;;;;;18.54;100.00;98238.03;2079602;28;20219;-81
2021/08/08 03:20:34;;;;;;;22.43;20.83;;;;;;;18.56;100.00;98245.78;2080291;28;20446;-81
2021/08/08 03:21:35;;;;;;;21.57;19.70;;;;;;;18.52;100.00;98253.84;2079600;28;20553;-81
2021/08/08 03:22:36;;;;;;;22.20;20.40;;;;;;;18.49;100.00;98251.09;2079604;28;20450;-81
2021/08/08 03:23:37;;;;;;;22.03;20.17;;;;;;;18.50;100.00;98255.34;2079253;28;20223;-81
2021/08/08 03:24:39;;;;;;;21.40;19.60;;;;;;;18.49;100.00;98251.88;2079560;28;20481;-81
2021/08/08 03:25:41;;;;;;;21.53;19.63;;;;;;;18.43;100.00;98253.34;2079602;28;20729;-81
2021/08/08 03:26:42;;;;;;;21.37;19.57;;;;;;;18.42;100.00;98262.59;2079784;28;20782;-81
2021/08/08 03:27:45;;;;;;;21.30;19.33;;;;;;;18.39;100.00;98257.13;2071986;28;20236;-81
2021/08/08 03:28:51;;;;;;;21.13;19.23;;;;;;;18.38;100.00;98256.38;2079726;28;20454;-81
2021/08/08 03:29:52;;;;;;;21.03;19.23;;;;;;;18.38;100.00;98259.06;2085614;28;20801;-81
2021/08/08 03:30:54;;;;;;;21.40;19.13;;;;;;;18.40;100.00;98270.28;2087844;28;20445;-81
2021/08/08 03:31:54;;;;;;;20.63;18.83;;;;;;;18.37;100.00;98265.63;2087928;28;20234;-81
2021/08/08 03:32:57;;;;;;;20.60;19.00;;;;;;;18.36;100.00;98274.88;2087889;28;20959;-81
2021/08/08 03:33:58;;;;;;;21.60;19.50;;;;;;;18.35;100.00;98273.31;2079567;28;20454;-81
2021/08/08 03:35:04;;;;;;;20.80;19.20;;;;;;;18.31;100.00;98267.06;2087942;28;20869;-81
2021/08/08 03:36:06;;;;;;;20.83;19.13;;;;;;;18.31;100.00;98277.88;2087975;28;20448;-81
2021/08/08 03:37:07;;;;;;;21.47;19.63;;;;;;;18.30;100.00;98279.03;2080951;28;20465;-80
2021/08/08 03:38:12;;;;;;;21.40;19.40;;;;;;;18.29;100.00;98288.28;2079412;28;21007;-81
2021/08/08 03:39:13;;;;;;;21.13;19.23;;;;;;;18.28;100.00;98281.31;2079645;28;20948;-81
2021/08/08 03:40:17;;;;;;;21.60;19.40;;;;;;;18.32;100.00;98276.72;2079500;28;20806;-81
2021/08/08 03:41:20;;;;;;;21.67;19.57;;;;;;;18.33;100.00;98278.28;2072300;28;20457;-81
2021/08/08 03:42:22;;;;;;;21.77;19.67;;;;;;;18.35;100.00;98289.50;2081777;28;20465;-79
2021/08/08 03:43:24;;;;;;;22.03;20.17;;;;;;;18.37;100.00;98281.81;2079512;28;20492;-81
2021/08/08 03:44:28;;;;;;;22.20;20.10;;;;;;;18.37;100.00;98281.81;2071717;28;20534;-81
2021/08/08 03:45:31;;;;;;;21.40;19.60;;;;;;;18.35;100.00;98289.50;2079491;28;20879;-81
2021/08/08 03:46:34;;;;;;;21.07;19.37;;;;;;;18.34;100.00;98296.06;2080279;28;20512;-81
2021/08/08 03:47:37;;;;;;;21.50;19.70;;;;;;;18.31;100.00;98300.25;2085405;28;20449;-80
2021/08/08 03:48:41;;;;;;;21.10;19.20;;;;;;;18.31;100.00;98299.47;2087694;28;20844;-81
2021/08/08 03:49:44;;;;;;;21.43;19.63;;;;;;;18.32;100.00;98309.91;2080163;28;20975;-82
2021/08/08 03:50:46;;;;;;;20.77;18.97;;;;;;;18.34;100.00;98301.47;2079666;28;20450;-81
2021/08/08 03:51:48;;;;;;;20.67;18.67;;;;;;;18.34;100.00;98304.16;2088366;28;20466;-81
2021/08/08 03:52:51;;;;;;;21.40;19.60;;;;;;;18.38;100.00;98299.56;2079651;28;20450;-81
2021/08/08 03:53:53;;;;;;;21.30;19.40;;;;;;;18.39;100.00;98301.13;2087494;28;20829;-81
2021/08/08 03:54:55;;;;;;;21.43;19.53;;;;;;;18.43;100.00;98303.91;2088363;28;20469;-81
2021/08/08 03:55:56;;;;;;;21.07;19.17;;;;;;;18.44;100.00;98316.25;2087696;28;20537;-81
2021/08/08 03:56:58;;;;;;;22.10;20.00;;;;;;;18.48;100.00;98341.38;2088474;28;20457;-81
2021/08/08 03:57:58;;;;;;;20.67;18.77;;;;;;;18.58;100.00;98346.13;2087739;28;20233;-81
2021/08/08 03:59:01;;;;;;;20.67;18.97;;;;;;;18.77;100.00;98359.56;2087889;28;20496;-81
2021/08/08 04:00:05;;;;;;;20.40;18.70;;;;;;;18.84;100.00;98366.97;2088094;28;20457;-81
2021/08/08 04:01:16;;;;;;;20.53;18.70;;;;;;;18.91;100.00;98367.84;2087354;28;20469;-81
2021/08/08 04:02:17;;;;;;;20.47;18.77;;;;;;;18.95;100.00;98362.47;2088776;28;20468;-81
2021/08/08 04:03:20;;;;;;;20.03;18.43;;;;;;;18.93;100.00;98365.53;2079595;28;20458;-81
2021/08/08 04:04:20;;;;;;;19.97;18.40;;;;;;;18.93;100.00;98373.63;2079515;28;20462;-81
2021/08/08 04:05:22;;;;;;;20.70;18.90;;;;;;;19.04;100.00;98370.31;2080105;28;20462;-81
2021/08/08 04:06:24;;;;;;;20.50;18.80;;;;;;;19.08;100.00;98358.38;2079441;28;20230;-81
2021/08/08 04:07:25;;;;;;;20.70;19.00;;;;;;;19.15;100.00;98374.69;2080304;28;20462;-81
2021/08/08 04:08:27;;;;;;;20.93;19.23;;;;;;;19.30;100.00;98378.31;2079406;28;20542;-81
2021/08/08 04:09:29;;;;;;;21.07;19.17;;;;;;;19.31;100.00;98376.41;2087813;28;20225;-81
2021/08/08 04:10:31;;;;;;;21.33;19.33;;;;;;;19.37;100.00;98374.91;2088183;28;20452;-81
2021/08/08 04:11:32;;;;;;;20.07;18.47;;;;;;;19.53;100.00;98391.69;2087605;28;20288;-81
2021/08/08 04:12:34;;;;;;;20.87;19.03;;;;;;;19.57;100.00;98387.13;2079802;28;20458;-81
2021/08/08 04:13:35;;;;;;;20.40;18.73;;;;;;;19.64;100.00;98398.03;2079611;28;20219;-81
2021/08/08 04:14:37;;;;;;;20.67;18.63;;;;;;;19.72;100.00;98391.53;2087731;28;20445;-81
2021/08/08 04:15:40;;;;;;;21.17;19.27;;;;;;;19.76;100.00;98384.22;2079595;28;20231;-80
2021/08/08 04:16:41;;;;;;;20.40;18.87;;;;;;;19.82;100.00;98389.31;2079486;28;20501;-81
2021/08/08 04:17:43;;;;;;;20.27;18.50;;;;;;;19.90;100.00;98382.78;2088300;28;20473;-81
2021/08/08 04:18:44;;;;;;;20.20;18.60;;;;;;;19.89;100.00;98397.47;2087562;28;20258;-81
2021/08/08 04:19:45;;;;;;;20.03;18.53;;;;;;;19.86;100.00;98396.28;2087530;28;20465;-81
2021/08/08 04:20:46;;;;;;;19.93;18.30;;;;;;;19.88;100.00;98406.75;2079965;28;20704;-81
2021/08/08 04:21:47;;;;;;;20.00;18.50;;;;;;;19.93;100.00;98403.69;2079400;28;20569;-81
2021/08/08 04:22:49;;;;;;;20.10;18.60;;;;;;;19.99;100.00;98407.63;2079718;28;20219;-80
2021/08/08 04:23:50;;;;;;;20.77;18.87;;;;;;;20.07;100.00;98411.94;2079814;28;20450;-81
2021/08/08 04:24:52;;;;;;;20.47;18.77;;;;;;;20.12;100.00;98421.66;2079151;28;20231;-80
2021/08/08 04:25:54;;;;;;;21.10;19.00;;;;;;;20.16;100.00;98419.75;2080173;28;20494;-80
2021/08/08 04:26:54;;;;;;;18.83;17.30;;;;;;;20.18;100.00;98439.13;2079396;28;20227;-80
2021/08/08 04:27:56;;;;;;;19.70;18.20;;;;;;;20.21;100.00;98433.72;2087693;28;20460;-81
2021/08/08 04:28:57;;;;;;;19.33;17.93;;;;;;;20.17;100.00;98432.16;2088022;28;20309;-80
2021/08/08 04:29:59;;;;;;;20.03;18.33;;;;;;;20.15;100.00;98439.84;2087706;28;20437;-81
2021/08/08 04:31:01;;;;;;;19.97;18.27;;;;;;;20.14;100.00;98441.78;2089094;28;20302;-81
2021/08/08 04:32:04;;;;;;;19.80;18.10;;;;;;;20.13;100.00;98475.44;2089063;28;20890;-81
2021/08/08 04:33:04;;;;;;;19.40;17.63;;;;;;;20.05;100.00;98466.47;2080974;28;20462;-81
2021/08/08 04:34:06;;;;;;;19.10;17.70;;;;;;;19.99;100.00;98464.50;2081383;28;20952;-81
2021/08/08 04:35:08;;;;;;;19.53;18.10;;;;;;;19.90;100.00;98489.16;2080495;28;20461;-80
2021/08/08 04:36:09;;;;;;;19.20;17.77;;;;;;;19.83;100.00;98472.84;2088920;28;21038;-80
2021/08/08 04:37:10;;;;;;;19.40;17.80;;;;;;;19.80;100.00;98489.81;2089102;28;20457;-81
2021/08/08 04:38:12;;;;;;;19.20;17.80;;;;;;;19.65;100.00;98472.66;2088894;28;20452;-81
2021/08/08 04:39:15;;;;;;;18.37;17.17;;;;;;;19.61;100.00;98463.72;2089795;28;20234;-81
2021/08/08 04:40:17;;;;;;;18.47;17.27;;;;;;;19.61;100.00;98466.41;2080834;28;20453;-81
2021/08/08 04:41:18;;;;;;;18.33;17.03;;;;;;;19.52;100.00;98478.66;2089656;28;20688;-81
2021/08/08 04:42:20;;;;;;;18.37;16.77;;;;;;;19.43;100.00;98466.19;2088963;28;20438;-81
2021/08/08 04:43:21;;;;;;;20.00;16.90;;;;;;;19.34;100.00;98483.84;2089008;28;20452;-81
2021/08/08 04:44:24;;;;;;;19.07;17.77;;;;;;;19.32;100.00;98469.94;2088953;28;20464;-80
2021/08/08 04:45:24;;;;;;;17.67;16.50;;;;;;;19.29;100.00;98468.75;2089048;28;20493;-81
2021/08/08 04:46:28;;;;;;;18.47;16.87;;;;;;;19.26;100.00;98482.22;2089385;28;20495;-81